Aérodrome :
LOGIN :

S'inscrire | Disclaimer

   EN    FR    IT 

 










Légende :    VFR   VFR Marginal   IFR   IFR Intensif   IFR Très Intensif
Visi : 
Plafond : 
>= 8 km
>= 3000ft
5 à 8 km
1000 à 3000 ft
1500m à 5 km
500 à 1000 ft
800 à 1500m
200 à 500 ft
< 800m
< 200 ft
Symboles :   Orages  Brouillard  Fortes neiges  Fortes précipitations  Vent > 20 kt
SIGMETs :   Divers  Orages  Givrage  Turbulence  Onde Orograph.  Cendres Volcan.







- Altitude de l'aérodrome : 17 ft
- Code IATA : GRQ


EHGG - Groningen Eelde

DERNIER METAR :
  • 201855Z AUTO 17003KT 7000 BKN011 OVC014 02/01 Q1000 TEMPO 8000 BKN008

METARs EXPIRÉS :
  • 201825Z AUTO 16003KT 130V210 7000 OVC014 02/01 Q1000 TEMPO 8000 BKN008
  • 201755Z AUTO 20002KT 6000 BKN012 OVC014 02/02 Q1000 TEMPO 8000 BKN008
  • 201725Z AUTO 19003KT 9000 OVC011 03/01 Q1000 TEMPO 7000 BKN008
  • 201655Z AUTO 18004KT 150V210 9000 OVC010 03/02 Q1000 TEMPO 7000 BKN008
  • 201625Z AUTO 18003KT 7000 BKN009 OVC010 03/02 Q1000 TEMPO 8000 BKN010

TAF TAF EHGG
Valide du 20 à 18h jusqu'au 22 à 00h UTC


201720Z 2018/2124 19004KT 9999 BKN012
BECMG 2018/2021 BKN015
PROB40 2019/2104 3000 BR BKN003
PROB40
TEMPO 2019/2024 3000 SHRAGSSN BKN008 SCT015CB
PROB30
TEMPO 2100/2105 29010KT 4000 SHRAGSSN SCT018CB
BECMG 2121/2124 15010KT
Pas de NOTAMs connus pour ce terrain.
1 SIGMET publié pour la FIR Amsterdam (EHAA) :
 
Turbulence forte
EHAA SIGMET 1 VALID 201835/202230 EHDB
EHAA AMSTERDAM FIR SEV TURB FCST WI N5412 E00415 - N5231 E00529 - N5156 E00438 - N5255 E00309 - N5412 E00415 FL180/330 MOV SE 30KT NC=



MET'MAP, la Météo Aéronautique d'un coup d'oeil ! - Copyright ORBIFLY Décembre 2007 - Disclaimer

ORBIFLY MET'MAP TEAM :

Programmation & Développement : Alexandra Zaïnal
Conception & Développement : Baudouin d'Aumeries
Co-Programmation & Développement : Marc-Olivier Méhu
Soutien technique & logistique : Manuel Goepfert

Contact : metmap@orbifly.com




SOURCES & CREDITS :

   NOAA